James L. Oberstar — WDC6154 — position and weather

sailwx.info

Track history (hours):
 
Tides and Currents Weather Stations Pressure Air Temp Water Temp Dewpoint Dewpoint Depression Visibility Wind Speed Wind Dir Waves Ship Positions

James L. Oberstar

Owner: Destin Trading Corporation, harahan, LA. More information available from US FCC via Universal Licensing System and Coast Guard Vessel Documentation Center.

Last reported at 2015-Jul-06 22:27 UTC. Time now 2015-Jul-07 19:45 UTC.
Position N 29°29' W 094°52'.

Length 26 m.

Type: Towing. MMSI: 367052120.

Date/timePositionNaut miles runAvg speedWind from/ knotsBaromVisibWave heightAir tempDewpointWater temp
2015-Jul-06 22:27N 29°29' W 094°52'7 7.8
2015-Jul-06 21:33N 29°35' W 094°56'8 7.7
2015-Jul-06 20:33N 29°42' W 095°01'6 4.9
2015-Jul-06 19:24N 29°45' W 095°06'0 0.3
2015-Jul-06 18:33N 29°45' W 095°06'0 0.0
2015-Jul-06 17:33N 29°45' W 095°06'0 0.0
2015-Jul-06 16:33N 29°45' W 095°06'0 0.0
2015-Jul-06 15:33N 29°45' W 095°06'0 0.0
2015-Jul-06 14:33N 29°45' W 095°06'0 0.0
2015-Jul-06 13:33N 29°45' W 095°06'0 0.0
2015-Jul-06 12:33N 29°45' W 095°06'0 0.1
2015-Jul-06 11:32N 29°45' W 095°06'0 0.0
2015-Jul-06 10:09N 29°45' W 095°06'0 0.0
2015-Jul-06 09:32N 29°45' W 095°06'0 0.0
2015-Jul-06 08:30N 29°45' W 095°06'0 0.0
2015-Jul-06 07:33N 29°45' W 095°06'0 0.0
2015-Jul-06 04:32N 29°45' W 095°06'0 0.0
2015-Jul-06 02:33N 29°45' W 095°06'0 0.0
2015-Jul-06 01:33N 29°45' W 095°06'0 0.0
2015-Jul-06 00:33N 29°45' W 095°06'0 0.0
2015-Jul-05 23:33N 29°45' W 095°06'0 0.0
2015-Jul-05 22:33N 29°45' W 095°06'0 0.0
2015-Jul-05 21:33N 29°45' W 095°06'2 2.1
2015-Jul-05 20:33N 29°45' W 095°04'6 6.5
2015-Jul-05 19:33N 29°40' W 094°59'7 7.1
2015-Jul-05 18:33N 29°34' W 094°55'  
2015-Jun-29 19:32N 29°31' W 094°53'7 7.4
2015-Jun-29 18:33N 29°37' W 094°57'7 7.3
2015-Jun-29 17:33N 29°43' W 095°01'5 3.7
2015-Jun-29 16:17N 29°45' W 095°06'0 0.1
2015-Jun-29 15:32N 29°45' W 095°06'0 0.1
2015-Jun-29 14:33N 29°45' W 095°06'0 0.0
2015-Jun-29 13:31N 29°45' W 095°06'0 0.0
2015-Jun-29 12:32N 29°45' W 095°06'0 0.0
2015-Jun-29 11:33N 29°45' W 095°06'0 0.0
2015-Jun-29 10:25N 29°45' W 095°06'0 0.0
2015-Jun-29 08:21N 29°45' W 095°06'0 0.0
2015-Jun-29 07:32N 29°45' W 095°06'0 0.0
2015-Jun-29 06:31N 29°45' W 095°06'0 0.0
2015-Jun-29 05:33N 29°45' W 095°06'0 0.0
2015-Jun-29 04:33N 29°45' W 095°06'0 0.0
2015-Jun-29 03:33N 29°45' W 095°06'0 0.0
2015-Jun-29 02:33N 29°45' W 095°06'0 0.0
2015-Jun-29 01:33N 29°45' W 095°06'0 0.0
2015-Jun-29 00:33N 29°45' W 095°06'0 0.0
2015-Jun-28 23:33N 29°45' W 095°06'2 0.4
2015-Jun-28 19:29N 29°44' W 095°08'0 0.0
2015-Jun-28 16:33N 29°44' W 095°08'0 0.0
2015-Jun-27 22:09N 29°44' W 095°08'3 5.3
2015-Jun-27 21:33N 29°46' W 095°05'0 0.1
2015-Jun-27 20:14N 29°46' W 095°05'4 5.7
2015-Jun-27 19:31N 29°44' W 095°09'3 0.9
2015-Jun-27 16:28N 29°44' W 095°12'5 5.2
2015-Jun-27 15:32N 29°45' W 095°06'3 3.2
2015-Jun-27 14:31N 29°47' W 095°05'0 0.0
2015-Jun-27 13:28N 29°47' W 095°05'0 0.0
2015-Jun-27 12:25N 29°47' W 095°05'2 1.6
2015-Jun-27 11:28N 29°46' W 095°05'1 1.4
2015-Jun-27 10:27N 29°46' W 095°06'2 2.0
2015-Jun-27 09:32N 29°44' W 095°07'4 4.1
2015-Jun-27 08:31N 29°47' W 095°04'0 0.0
2015-Jun-27 07:33N 29°47' W 095°04'0 0.0
2015-Jun-27 06:33N 29°47' W 095°04'0 0.0
2015-Jun-27 05:31N 29°47' W 095°04'0 0.0
2015-Jun-27 04:33N 29°47' W 095°04'0 0.0
2015-Jun-27 03:33N 29°47' W 095°04'0 0.0
2015-Jun-27 02:32N 29°47' W 095°04'0 0.0
2015-Jun-27 01:32N 29°47' W 095°04'0 0.0
2015-Jun-27 00:32N 29°47' W 095°04'0 0.0
2015-Jun-26 23:29N 29°47' W 095°04'0 0.3
2015-Jun-26 22:29N 29°47' W 095°05'  
Track history (hours):
 
Tides and Currents Weather Stations Pressure Air Temp Water Temp Dewpoint Dewpoint Depression Visibility Wind Speed Wind Dir Waves Ship Positions

James L. Oberstar

Owner: Destin Trading Corporation, harahan, LA. More information available from US FCC via Universal Licensing System and Coast Guard Vessel Documentation Center.

Last reported at 2015-Jul-06 22:27 UTC. Time now 2015-Jul-07 19:45 UTC.
Position N 29°29' W 094°52'.

Length 26 m.

Type: Towing. MMSI: 367052120.

Date/timePositionNaut miles runAvg speedWind from/ knotsBaromVisibWave heightAir tempDewpointWater temp
2015-Jul-06 22:27N 29°29' W 094°52'7 7.8
2015-Jul-06 21:33N 29°35' W 094°56'8 7.7
2015-Jul-06 20:33N 29°42' W 095°01'6 4.9
2015-Jul-06 19:24N 29°45' W 095°06'0 0.3
2015-Jul-06 18:33N 29°45' W 095°06'0 0.0
2015-Jul-06 17:33N 29°45' W 095°06'0 0.0
2015-Jul-06 16:33N 29°45' W 095°06'0 0.0
2015-Jul-06 15:33N 29°45' W 095°06'0 0.0
2015-Jul-06 14:33N 29°45' W 095°06'0 0.0
2015-Jul-06 13:33N 29°45' W 095°06'0 0.0
2015-Jul-06 12:33N 29°45' W 095°06'0 0.1
2015-Jul-06 11:32N 29°45' W 095°06'0 0.0
2015-Jul-06 10:09N 29°45' W 095°06'0 0.0
2015-Jul-06 09:32N 29°45' W 095°06'0 0.0
2015-Jul-06 08:30N 29°45' W 095°06'0 0.0
2015-Jul-06 07:33N 29°45' W 095°06'0 0.0
2015-Jul-06 04:32N 29°45' W 095°06'0 0.0
2015-Jul-06 02:33N 29°45' W 095°06'0 0.0
2015-Jul-06 01:33N 29°45' W 095°06'0 0.0
2015-Jul-06 00:33N 29°45' W 095°06'0 0.0
2015-Jul-05 23:33N 29°45' W 095°06'0 0.0
2015-Jul-05 22:33N 29°45' W 095°06'0 0.0
2015-Jul-05 21:33N 29°45' W 095°06'2 2.1
2015-Jul-05 20:33N 29°45' W 095°04'6 6.5
2015-Jul-05 19:33N 29°40' W 094°59'7 7.1
2015-Jul-05 18:33N 29°34' W 094°55'  
2015-Jun-29 19:32N 29°31' W 094°53'7 7.4
2015-Jun-29 18:33N 29°37' W 094°57'7 7.3
2015-Jun-29 17:33N 29°43' W 095°01'5 3.7
2015-Jun-29 16:17N 29°45' W 095°06'0 0.1
2015-Jun-29 15:32N 29°45' W 095°06'0 0.1
2015-Jun-29 14:33N 29°45' W 095°06'0 0.0
2015-Jun-29 13:31N 29°45' W 095°06'0 0.0
2015-Jun-29 12:32N 29°45' W 095°06'0 0.0
2015-Jun-29 11:33N 29°45' W 095°06'0 0.0
2015-Jun-29 10:25N 29°45' W 095°06'0 0.0
2015-Jun-29 08:21N 29°45' W 095°06'0 0.0
2015-Jun-29 07:32N 29°45' W 095°06'0 0.0
2015-Jun-29 06:31N 29°45' W 095°06'0 0.0
2015-Jun-29 05:33N 29°45' W 095°06'0 0.0
2015-Jun-29 04:33N 29°45' W 095°06'0 0.0
2015-Jun-29 03:33N 29°45' W 095°06'0 0.0
2015-Jun-29 02:33N 29°45' W 095°06'0 0.0
2015-Jun-29 01:33N 29°45' W 095°06'0 0.0
2015-Jun-29 00:33N 29°45' W 095°06'0 0.0
2015-Jun-28 23:33N 29°45' W 095°06'2 0.4
2015-Jun-28 19:29N 29°44' W 095°08'0 0.0
2015-Jun-28 16:33N 29°44' W 095°08'0 0.0
2015-Jun-27 22:09N 29°44' W 095°08'3 5.3
2015-Jun-27 21:33N 29°46' W 095°05'0 0.1
2015-Jun-27 20:14N 29°46' W 095°05'4 5.7
2015-Jun-27 19:31N 29°44' W 095°09'3 0.9
2015-Jun-27 16:28N 29°44' W 095°12'5 5.2
2015-Jun-27 15:32N 29°45' W 095°06'3 3.2
2015-Jun-27 14:31N 29°47' W 095°05'0 0.0
2015-Jun-27 13:28N 29°47' W 095°05'0 0.0
2015-Jun-27 12:25N 29°47' W 095°05'2 1.6
2015-Jun-27 11:28N 29°46' W 095°05'1 1.4
2015-Jun-27 10:27N 29°46' W 095°06'2 2.0
2015-Jun-27 09:32N 29°44' W 095°07'4 4.1
2015-Jun-27 08:31N 29°47' W 095°04'0 0.0
2015-Jun-27 07:33N 29°47' W 095°04'0 0.0
2015-Jun-27 06:33N 29°47' W 095°04'0 0.0
2015-Jun-27 05:31N 29°47' W 095°04'0 0.0
2015-Jun-27 04:33N 29°47' W 095°04'0 0.0
2015-Jun-27 03:33N 29°47' W 095°04'0 0.0
2015-Jun-27 02:32N 29°47' W 095°04'0 0.0
2015-Jun-27 01:32N 29°47' W 095°04'0 0.0
2015-Jun-27 00:32N 29°47' W 095°04'0 0.0
2015-Jun-26 23:29N 29°47' W 095°04'0 0.3
2015-Jun-26 22:29N 29°47' W 095°05'  

Dump ship's entire track history